Base ULM du Burgaud

FR-0423 · Tarn-et-Garonne, Occitanie, Frankreich

METAR-Geschichte FR-0423 · Base ULM du Burgaud

Unten siehst du die METARs der letzten paar Tage. Wähle ein Jahr, um ältere METARs ab dem Jahr 2007 zu durchsuchen.

16. April 2024

Uhrzeit Code Wetter Temp. Sichtweite Wolkendecke Wind METAR/SPECI
02:30
V
11 °C 10 km+ 4.500 ft 260° 260° 11 kt METAR LFBO 160030Z AUTO 26011KT 9999 OVC045 11/07 Q1023 TEMPO BKN012
02:00
V
11 °C 10 km+ 5.400 ft 270° 270° 13 kt METAR LFBO 160000Z AUTO 27013KT 9999 FEW035 SCT048 BKN054 11/07 Q1023 TEMPO RA
01:30
V
11 °C 10 km+ 3.300 ft 280° 280° 11 kt METAR LFBO 152330Z AUTO 28011KT 9999 FEW025 BKN033 OVC041 11/07 Q1023 TEMPO RA
01:00
V
12 °C 10 km+ 3.800 ft 280° 280° 11 kt METAR LFBO 152300Z AUTO 28011KT 9999 SCT031 OVC038 12/07 Q1024 TEMPO RA
00:30
V
12 °C 10 km+ 4.200 ft 280° 280° 12 kt METAR LFBO 152230Z AUTO 28012KT 9999 FEW034 OVC042 12/07 Q1024 TEMPO RA
00:00
V
12 °C 10 km+ 4.200 ft 280° 280° 11 kt METAR LFBO 152200Z AUTO 28011KT 9999 OVC042 12/07 Q1024 NOSIG

15. April 2024

Uhrzeit Code Wetter Temp. Sichtweite Wolkendecke Wind METAR/SPECI
23:30
V
12 °C 10 km+ 3.300 ft 290° 290° 15 kt METAR LFBO 152130Z AUTO 29015KT 9999 FEW025 BKN033 BKN042 12/07 Q1023 NOSIG
23:00
V
13 °C 10 km+ 3.600 ft 280° 280° 13 kt METAR LFBO 152100Z AUTO 28013KT 9999 FEW028 BKN036 OVC042 13/08 Q1023 NOSIG
22:30
V
13 °C 10 km+ 4.100 ft 280° 280° 13 kt METAR LFBO 152030Z AUTO 28013KT 9999 FEW030 OVC041 13/07 Q1023 NOSIG
22:00
V
13 °C 10 km+ 3.700 ft 280° 280° 13 kt METAR LFBO 152000Z AUTO 28013KT 9999 OVC037 13/07 Q1023 NOSIG
21:30
V
13 °C 10 km+ 3.500 ft 290° 290° 14 kt METAR LFBO 151930Z AUTO 29014KT 9999 BKN035 13/07 Q1023 NOSIG
21:00
V
13 °C 10 km+ 3.400 ft 300° 300° 11 kt METAR LFBO 151900Z AUTO 30011KT 9999 SCT027 OVC034 13/08 Q1023 NOSIG
20:30
M
14 °C 10 km+ 2.800 ft 290° 290° 13 kt METAR LFBO 151830Z AUTO 29013KT 250V310 9999 BKN028 OVC034 14/09 Q1023 NOSIG
20:00
V
14 °C 10 km+ 3.200 ft 280° 280° 14 kt METAR LFBO 151800Z AUTO 28014KT 9999 OVC032 14/09 Q1023 NOSIG
19:30
V
14 °C 10 km+ 3.100 ft 290° 290° 16 kt METAR LFBO 151730Z AUTO 29016KT 9999 OVC031 14/09 Q1023 NOSIG
19:00
V
15 °C 10 km+ 3.200 ft 290° 290° 16 kt METAR LFBO 151700Z AUTO 29016KT 9999 FEW025 OVC032 15/10 Q1023 NOSIG
18:30
M
15 °C 10 km+ 2.700 ft 290° 290° 15 kt METAR LFBO 151630Z AUTO 29015KT 9999 FEW018 BKN027 OVC036 15/10 Q1023 NOSIG
18:00
V
16 °C 10 km+ 3.700 ft 290° 290° 15 kt METAR LFBO 151600Z AUTO 29015KT 9999 SCT026 SCT031 OVC037 16/10 Q1023 NOSIG
17:30
M
15 °C 10 km+ 2.300 ft 280° 280° 14 kt METAR LFBO 151530Z AUTO 28014KT 9999 BKN023 OVC033 15/11 Q1023 NOSIG
17:00
M
16 °C 10 km+ 2.300 ft 280° 280° 15 kt METAR LFBO 151500Z AUTO 28015KT 9999 BKN023 OVC030 16/11 Q1023 NOSIG
16:30
M
16 °C 10 km+ 2.100 ft 290° 290° 14 kt METAR LFBO 151430Z AUTO 29014KT 9999 BKN021 OVC031 16/11 Q1023 NOSIG
16:00
M
16 °C 10 km+ 2.500 ft 300° 300° 12 kt METAR LFBO 151400Z AUTO 30012KT 9999 SCT019 BKN025 OVC031 16/11 Q1023 NOSIG
15:30
M
16 °C 10 km+ 2.000 ft 290° 290° 15 kt METAR LFBO 151330Z AUTO 29015KT 260V320 9999 BKN020 BKN025 OVC030 16/11 Q1023 NOSIG
15:00
M
16 °C 10 km+ 2.100 ft 300° 300° 16 kt METAR LFBO 151300Z AUTO 30016KT 9999 BKN021 BKN027 OVC032 16/11 Q1023 NOSIG
14:30
M
16 °C 10 km+ 2.400 ft 300° 300° 16 kt METAR LFBO 151230Z AUTO 30016KT 9999 BKN024 OVC032 16/11 Q1023 NOSIG
14:00
M
16 °C 10 km+ 2.500 ft 280° 280° 14 kt METAR LFBO 151200Z AUTO 28014KT 9999 FEW010 BKN025 OVC034 16/11 Q1023 NOSIG
13:30
M
16 °C 10 km+ 2.200 ft 300° 300° 15 kt METAR LFBO 151130Z AUTO 30015KT 9999 BKN022 OVC028 16/11 Q1023 NOSIG
13:00
M
16 °C 10 km+ 2.400 ft 280° 280° 13 kt METAR LFBO 151100Z AUTO 28013KT 9999 OVC024 16/11 Q1024 NOSIG
12:30
M
16 °C 10 km+ 2.100 ft 290° 290° 15 kt METAR LFBO 151030Z AUTO 29015KT 9999 BKN021 OVC028 16/11 Q1023 NOSIG
12:00
M
16 °C 10 km+ 2.100 ft 280° 280° 15 kt METAR LFBO 151000Z AUTO 28015KT 9999 OVC021 16/11 Q1024 NOSIG
11:30
M
16 °C 10 km+ 2.000 ft 290° 290° 12 kt METAR LFBO 150930Z AUTO 29012KT 9999 BKN020 OVC025 16/12 Q1024 NOSIG
11:00
M
16 °C 10 km+ 1.900 ft 280° 280° 14 kt METAR LFBO 150900Z AUTO 28014KT 9999 BKN019 OVC024 16/11 Q1024 NOSIG
10:30
M
15 °C 10 km+ 1.900 ft 290° 290° 17 kt METAR LFBO 150830Z AUTO 29017KT 9999 OVC019 15/11 Q1024 NOSIG
10:00
M
15 °C 10 km+ 1.700 ft 280° 280° 12 kt METAR LFBO 150800Z AUTO 28012KT 9999 OVC017 15/11 Q1023 TEMPO BKN012
09:30
M
14 °C 10 km+ 1.600 ft 280° 280° 13 kt METAR LFBO 150730Z AUTO 28013KT 9999 BKN016 14/11 Q1023 TEMPO BKN012
09:00
M
14 °C 10 km+ 1.600 ft 270° 270° 10 kt METAR LFBO 150700Z AUTO 27010KT 240V300 9999 BKN016/// BKN072/// BKN100/// //////CB 14/11 Q1023 TEMPO -TSRA BKN012
08:30
V
14 °C 10 km+ 7.200 ft 280° 280° 12 kt METAR LFBO 150630Z AUTO 28012KT 9999 SCT016/// BKN072/// BKN098/// ///CB 14/11 Q1023 TEMPO -TSRA BKN012
08:00
M
14 °C 10 km+ 1.500 ft 290° 290° 13 kt METAR LFBO 150600Z AUTO 29013KT 9999 BKN015/// BKN032/// OVC094/// ///CB 14/11 Q1022 TEMPO -TSRA BKN012 SCT060CB
07:30
M
14 °C 10 km+ 1.400 ft 290° 290° 8 kt METAR LFBO 150530Z AUTO 29008KT 260V330 9999 BKN014/// BKN070/// OVC096/// ///CB 14/11 Q1022 TEMPO BKN012
07:00
V
14 °C 10 km+ 7.000 ft 280° 280° 10 kt METAR LFBO 150500Z AUTO 28010KT 9999 FEW015 SCT056 BKN070 14/11 Q1022 TEMPO BKN012 SCT050TCU
06:30
V
14 °C 10 km+ 6.000 ft 280° 280° 11 kt METAR LFBO 150430Z AUTO 28011KT 9999 FEW049 BKN060 BKN096 14/11 Q1021 TEMPO BKN012 SCT050TCU
06:00
V
14 °C 10 km+ - 260° 260° 11 kt METAR LFBO 150400Z AUTO 26011KT CAVOK 14/11 Q1021 TEMPO BKN012 SCT050TCU
05:30
V
14 °C 10 km+ 6.800 ft 260° 260° 11 kt METAR LFBO 150330Z AUTO 26011KT 220V280 9999 FEW014 OVC068 14/11 Q1021 TEMPO BKN012 SCT050TCU
05:00
M
14 °C 10 km+ 1.400 ft 280° 280° 10 kt METAR LFBO 150300Z AUTO 28010KT 240V300 9999 BKN014 BKN068 14/11 Q1021 TEMPO BKN012 SCT050TCU
04:30
M
15 °C 10 km+ 1.500 ft 280° 280° 11 kt METAR LFBO 150230Z AUTO 28011KT 9999 BKN015 15/12 Q1021 TEMPO BKN012 SCT050TCU
04:00
V
15 °C 10 km+ - 270° 270° 13 kt METAR LFBO 150200Z AUTO 27013KT 9999 FEW016 15/12 Q1021 TEMPO BKN012 SCT050TCU
03:30
V
16 °C 10 km+ - 260° 260° 11 kt METAR LFBO 150130Z AUTO 26011KT 9999 FEW018 16/12 Q1021 TEMPO BKN012 SCT050TCU
03:00
V
17 °C 10 km+ - 290° 290° 6 kt METAR LFBO 150100Z AUTO 29006KT 250V350 CAVOK 17/13 Q1020 NOSIG
02:30
V
18 °C 10 km+ - 280° 280° 9 kt METAR LFBO 150030Z AUTO 28009KT CAVOK 18/14 Q1020 NOSIG
02:00
V
20 °C 10 km+ - 270° 270° 11 kt METAR LFBO 150000Z AUTO 27011KT CAVOK 20/13 Q1020 NOSIG
01:30
V
18 °C 10 km+ - 200° 200° 3 kt METAR LFBO 142330Z AUTO 20003KT 160V250 CAVOK 18/11 Q1020 NOSIG
01:00
V
19 °C 10 km+ - Var Var 2 kt METAR LFBO 142300Z AUTO VRB02KT CAVOK 19/10 Q1020 BECMG 28012KT
00:30
V
18 °C 10 km+ - 190° 190° 3 kt METAR LFBO 142230Z AUTO 19003KT CAVOK 18/12 Q1020 BECMG 28012KT
00:00
V
19 °C 10 km+ - 200° 200° 6 kt METAR LFBO 142200Z AUTO 20006KT CAVOK 19/12 Q1020 BECMG 28012KT

14. April 2024

Uhrzeit Code Wetter Temp. Sichtweite Wolkendecke Wind METAR/SPECI
23:30
V
20 °C 10 km+ - 160° 160° 5 kt METAR LFBO 142130Z AUTO 16005KT CAVOK 20/13 Q1020 BECMG 28012KT
23:00
V
21 °C 10 km+ - Var Var 3 kt METAR LFBO 142100Z AUTO VRB03KT CAVOK 21/13 Q1020 NOSIG
22:30
V
22 °C 10 km+ - 290° 290° 3 kt METAR LFBO 142030Z AUTO 29003KT CAVOK 22/13 Q1020 NOSIG
22:00
V
23 °C 10 km+ - 310° 310° 4 kt METAR LFBO 142000Z AUTO 31004KT CAVOK 23/13 Q1020 NOSIG
21:30
V
24 °C 10 km+ - 310° 310° 3 kt METAR LFBO 141930Z AUTO 31003KT CAVOK 24/14 Q1019 NOSIG
21:00
V
25 °C 10 km+ - 320° 320° 5 kt METAR LFBO 141900Z AUTO 32005KT CAVOK 25/14 Q1019 NOSIG
20:30
V
25 °C 10 km+ - 310° 310° 7 kt METAR LFBO 141830Z AUTO 31007KT CAVOK 25/12 Q1019 NOSIG
20:00
V
27 °C 10 km+ - 320° 320° 5 kt METAR LFBO 141800Z AUTO 32005KT CAVOK 27/12 Q1019 NOSIG
19:30
V
27 °C 10 km+ - 300° 300° 6 kt METAR LFBO 141730Z AUTO 30006KT CAVOK 27/14 Q1019 NOSIG
19:00
V
28 °C 10 km+ - 330° 330° 5 kt METAR LFBO 141700Z AUTO 33005KT 290V360 CAVOK 28/13 Q1019 NOSIG
18:30
V
28 °C 10 km+ - 350° 350° 6 kt METAR LFBO 141630Z AUTO 35006KT 310V020 CAVOK 28/14 Q1019 NOSIG
18:00
V
29 °C 10 km+ - 320° 320° 7 kt METAR LFBO 141600Z AUTO 32007KT 300V360 CAVOK 29/14 Q1020 NOSIG
17:30
V
29 °C 10 km+ - 330° 330° 5 kt METAR LFBO 141530Z AUTO 33005KT 280V020 CAVOK 29/14 Q1020 NOSIG
17:00
V
29 °C 10 km+ - Var Var 3 kt METAR LFBO 141500Z AUTO VRB03KT CAVOK 29/13 Q1020 NOSIG
16:30
V
28 °C 10 km+ - 350° 350° 4 kt METAR LFBO 141430Z AUTO 35004KT 290V030 CAVOK 28/13 Q1021 NOSIG
16:00
V
28 °C 10 km+ - Var Var 3 kt METAR LFBO 141400Z AUTO VRB03KT CAVOK 28/14 Q1021 NOSIG
15:30
V
27 °C 10 km+ - 360° 360° 5 kt METAR LFBO 141330Z AUTO 36005KT 310V050 9999 FEW007 27/14 Q1022 NOSIG
15:00
V
27 °C 10 km+ - 360° 360° 3 kt METAR LFBO 141300Z AUTO 36003KT 300V090 CAVOK 27/13 Q1022 NOSIG
14:30
V
26 °C 10 km+ - 350° 350° 5 kt METAR LFBO 141230Z AUTO 35005KT 310V030 CAVOK 26/14 Q1022 NOSIG
14:00
V
26 °C 10 km+ - Var Var 2 kt METAR LFBO 141200Z AUTO VRB02KT CAVOK 26/14 Q1023 NOSIG
13:30
V
26 °C 10 km+ - Var Var 1 kt METAR LFBO 141130Z AUTO VRB01KT CAVOK 26/15 Q1023 NOSIG
13:00
V
24 °C 10 km+ - Var Var 2 kt METAR LFBO 141100Z AUTO VRB02KT CAVOK 24/16 Q1024 NOSIG
12:30
V
23 °C 10 km+ - 270° 270° 3 kt METAR LFBO 141030Z AUTO 27003KT 220V320 9999 FEW007 23/14 Q1024 NOSIG
12:00
V
22 °C 10 km+ - Var Var 2 kt METAR LFBO 141000Z AUTO VRB02KT CAVOK 22/14 Q1024 NOSIG
11:30
V
21 °C 10 km+ - Var Var 1 kt METAR LFBO 140930Z AUTO VRB01KT 9999 FEW007 21/14 Q1025 NOSIG
11:00
V
20 °C 10 km+ - Var Var 2 kt METAR LFBO 140900Z AUTO VRB02KT CAVOK 20/14 Q1025 NOSIG
10:30
V
19 °C 10 km+ - Var Var 2 kt METAR LFBO 140830Z AUTO VRB02KT CAVOK 19/13 Q1025 NOSIG
10:00
V
18 °C 10 km+ - Var Var 2 kt METAR LFBO 140800Z AUTO VRB02KT 9999 FEW008 18/13 Q1025 NOSIG
09:30
V
16 °C 10 km+ - Var Var 2 kt METAR LFBO 140730Z AUTO VRB02KT CAVOK 16/12 Q1025 NOSIG
09:00
V
14 °C 10 km+ - Var Var 2 kt METAR LFBO 140700Z AUTO VRB02KT 9999 FEW007 14/12 Q1025 NOSIG
08:30
V
13 °C 10 km+ - Var Var 2 kt METAR LFBO 140630Z AUTO VRB02KT CAVOK 13/11 Q1025 NOSIG
08:00
V
12 °C 10 km+ - Var Var 2 kt METAR LFBO 140600Z AUTO VRB02KT 9999 FEW007 12/10 Q1025 NOSIG
07:30
V
11 °C 10 km+ - 150° 150° 3 kt METAR LFBO 140530Z AUTO 15003KT 130V190 CAVOK 11/10 Q1025 NOSIG
07:00
V
11 °C 10 km+ - Var Var 3 kt METAR LFBO 140500Z AUTO VRB03KT CAVOK 11/10 Q1025 NOSIG
06:30
V
11 °C 10 km+ - 150° 150° 4 kt METAR LFBO 140430Z AUTO 15004KT CAVOK 11/09 Q1024 NOSIG
06:00
V
12 °C 10 km+ - 190° 190° 3 kt METAR LFBO 140400Z AUTO 19003KT CAVOK 12/10 Q1025 NOSIG
05:30
V
12 °C 10 km+ - 170° 170° 3 kt METAR LFBO 140330Z AUTO 17003KT CAVOK 12/10 Q1025 NOSIG
05:00
V
13 °C 10 km+ - 150° 150° 3 kt METAR LFBO 140300Z AUTO 15003KT CAVOK 13/11 Q1025 NOSIG
04:30
V
13 °C 10 km+ - 160° 160° 3 kt METAR LFBO 140230Z AUTO 16003KT CAVOK 13/11 Q1025 NOSIG
04:00
V
13 °C 10 km+ - 180° 180° 3 kt METAR LFBO 140200Z AUTO 18003KT CAVOK 13/11 Q1025 NOSIG
03:30
V
13 °C 10 km+ - 170° 170° 4 kt METAR LFBO 140130Z AUTO 17004KT CAVOK 13/11 Q1025 NOSIG
03:00
V
14 °C 10 km+ - 170° 170° 3 kt METAR LFBO 140100Z AUTO 17003KT CAVOK 14/12 Q1025 NOSIG
02:30
V
14 °C 10 km+ - 180° 180° 5 kt METAR LFBO 140030Z AUTO 18005KT CAVOK 14/11 Q1025 NOSIG
02:00
V
16 °C 10 km+ - 360° 360° 0 kt METAR LFBO 140000Z AUTO 00000KT CAVOK 16/12 Q1025 NOSIG
01:30
V
16 °C 10 km+ - 180° 180° 3 kt METAR LFBO 132330Z AUTO 18003KT CAVOK 16/12 Q1025 NOSIG
01:00
V
16 °C 10 km+ - 190° 190° 5 kt METAR LFBO 132300Z AUTO 19005KT CAVOK 16/12 Q1025 NOSIG
00:30
V
17 °C 10 km+ - 210° 210° 4 kt METAR LFBO 132230Z AUTO 21004KT CAVOK 17/12 Q1026 NOSIG
00:00
V
18 °C 10 km+ - 140° 140° 3 kt METAR LFBO 132200Z AUTO 14003KT CAVOK 18/12 Q1025 NOSIG

13. April 2024

Uhrzeit Code Wetter Temp. Sichtweite Wolkendecke Wind METAR/SPECI
23:30
V
19 °C 10 km+ - 190° 190° 4 kt METAR LFBO 132130Z AUTO 19004KT CAVOK 19/12 Q1025 NOSIG
23:00
V
21 °C 10 km+ - 310° 310° 2 kt METAR LFBO 132100Z AUTO 31002KT CAVOK 21/11 Q1025 NOSIG
22:30
V
22 °C 10 km+ - 310° 310° 3 kt METAR LFBO 132030Z AUTO 31003KT CAVOK 22/11 Q1025 NOSIG
22:00
V
22 °C 10 km+ - 310° 310° 4 kt METAR LFBO 132000Z AUTO 31004KT CAVOK 22/12 Q1025 NOSIG
21:30
V
23 °C 10 km+ - 320° 320° 4 kt METAR LFBO 131930Z AUTO 32004KT CAVOK 23/12 Q1025 NOSIG
21:00
V
23 °C 10 km+ - 310° 310° 5 kt METAR LFBO 131900Z AUTO 31005KT CAVOK 23/12 Q1025 NOSIG
20:30
V
24 °C 10 km+ - 320° 320° 5 kt METAR LFBO 131830Z AUTO 32005KT CAVOK 24/11 Q1024 NOSIG
20:00
V
26 °C 10 km+ - 320° 320° 5 kt METAR LFBO 131800Z AUTO 32005KT CAVOK 26/11 Q1024 NOSIG
19:30
V
27 °C 10 km+ - 010° 010° 4 kt METAR LFBO 131730Z AUTO 01004KT 320V070 CAVOK 27/11 Q1024 NOSIG
19:00
V
28 °C 10 km+ - 040° 040° 4 kt METAR LFBO 131700Z AUTO 04004KT 340V090 CAVOK 28/10 Q1024 NOSIG
18:30
V
28 °C 10 km+ - 360° 360° 5 kt METAR LFBO 131630Z AUTO 36005KT 330V070 CAVOK 28/11 Q1024 NOSIG
18:00
V
28 °C 10 km+ - 010° 010° 5 kt METAR LFBO 131600Z AUTO 01005KT 320V080 CAVOK 28/11 Q1024 NOSIG
17:30
V
28 °C 10 km+ - 030° 030° 4 kt METAR LFBO 131530Z AUTO 03004KT 340V080 CAVOK 28/11 Q1025 NOSIG
17:00
V
28 °C 10 km+ - 360° 360° 4 kt METAR LFBO 131500Z AUTO 36004KT 320V050 CAVOK 28/11 Q1025 NOSIG
16:30
V
28 °C 10 km+ - 010° 010° 4 kt METAR LFBO 131430Z AUTO 01004KT 310V070 CAVOK 28/12 Q1025 NOSIG
16:00
V
27 °C 10 km+ - 010° 010° 6 kt METAR LFBO 131400Z AUTO 01006KT 340V040 CAVOK 27/13 Q1025 NOSIG
15:30
V
27 °C 10 km+ - 320° 320° 5 kt METAR LFBO 131330Z AUTO 32005KT 240V030 CAVOK 27/13 Q1026 NOSIG
15:00
V
26 °C 10 km+ - 030° 030° 3 kt METAR LFBO 131300Z AUTO 03003KT 330V110 CAVOK 26/12 Q1026 NOSIG
14:30
V
26 °C 10 km+ - Var Var 5 kt METAR LFBO 131230Z AUTO VRB05KT CAVOK 26/11 Q1026 NOSIG
14:00
V
25 °C 10 km+ - Var Var 4 kt METAR LFBO 131200Z AUTO VRB04KT CAVOK 25/13 Q1027 NOSIG
13:30
V
25 °C 10 km+ - 020° 020° 4 kt METAR LFBO 131130Z AUTO 02004KT 300V110 CAVOK 25/11 Q1027 NOSIG
13:00
V
24 °C 10 km+ - Var Var 3 kt METAR LFBO 131100Z AUTO VRB03KT CAVOK 24/13 Q1028 NOSIG
12:30
V
23 °C 10 km+ - Var Var 3 kt METAR LFBO 131030Z AUTO VRB03KT CAVOK 23/11 Q1028 NOSIG
12:00
V
22 °C 10 km+ - Var Var 2 kt METAR LFBO 131000Z AUTO VRB02KT CAVOK 22/12 Q1028 NOSIG
11:30
V
21 °C 10 km+ - 360° 360° 0 kt METAR LFBO 130930Z AUTO 00000KT CAVOK 21/11 Q1028 NOSIG
11:00
V
19 °C 10 km+ - Var Var 2 kt METAR LFBO 130900Z AUTO VRB02KT CAVOK 19/10 Q1028 NOSIG
10:30
V
17 °C 10 km+ - Var Var 1 kt METAR LFBO 130830Z AUTO VRB01KT CAVOK 17/10 Q1028 NOSIG
10:00
V
16 °C 10 km+ - Var Var 2 kt METAR LFBO 130800Z AUTO VRB02KT 9999 FEW007 16/09 Q1028 NOSIG
09:30
V
14 °C 10 km+ - 170° 170° 5 kt METAR LFBO 130730Z AUTO 17005KT 9999 FEW008 14/09 Q1028 NOSIG
09:00
V
12 °C 10 km+ - 170° 170° 4 kt METAR LFBO 130700Z AUTO 17004KT 9999 FEW009 12/09 Q1028 NOSIG
08:30
V
11 °C 10 km+ - 190° 190° 4 kt METAR LFBO 130630Z AUTO 19004KT 9999 FEW008 11/09 Q1028 NOSIG
08:00
V
10 °C 10 km+ - 170° 170° 4 kt METAR LFBO 130600Z AUTO 17004KT 9999 FEW008 10/08 Q1028 NOSIG
Eine Änderung melden